Time;durP1;ratioP1;P1;durP2;ratioP2;P2;SDS_P1;SDS_P2;PMS_P1;PMS_P2;Temp;Humidity;BMP_temperature;BMP_pressure;BME280_temperature;BME280_humidity;BME280_pressure;Samples;Min_cycle;Max_cycle;Signal;HPM_P1;HPM_P2
2023/06/24 00:03:29;;;;;;;7.40;5.40;;;18.90;96.00;;;;;;20835739;28;20633;-65
2023/06/24 00:13:31;;;;;;;7.83;5.03;;;18.80;96.20;;;;;;20834780;28;20279;-63
2023/06/24 00:23:36;;;;;;;9.10;5.67;;;18.60;96.50;;;;;;20832039;28;20299;-61
2023/06/24 00:33:38;;;;;;;10.20;5.80;;;18.60;96.80;;;;;;20833266;28;20263;-60
2023/06/24 00:43:40;;;;;;;13.60;5.40;;;18.40;97.20;;;;;;20832387;28;20740;-61
2023/06/24 00:53:41;;;;;;;7.00;5.50;;;18.40;97.20;;;;;;20832291;28;20272;-62
2023/06/24 01:03:43;;;;;;;5.87;5.20;;;18.40;97.30;;;;;;20831267;28;20718;-61
2023/06/24 01:13:45;;;;;;;7.03;5.13;;;18.20;97.60;;;;;;20830821;28;20268;-64
2023/06/24 01:23:55;;;;;;;8.67;6.53;;;18.30;97.60;;;;;;20830594;28;20210;-69
2023/06/24 01:34:24;;;;;;;10.70;6.93;;;18.10;97.80;;;;;;20833323;28;20285;-62
2023/06/24 01:44:28;;;;;;;9.87;6.57;;;17.90;98.10;;;;;;20847418;28;20239;-62
2023/06/24 01:54:31;;;;;;;8.43;6.10;;;17.70;98.40;;;;;;20847763;28;20239;-61
2023/06/24 02:04:34;;;;;;;10.80;6.93;;;17.50;98.60;;;;;;20846979;28;20232;-60
2023/06/24 02:14:37;;;;;;;9.33;7.17;;;17.30;98.90;;;;;;20844042;28;20321;-63
2023/06/24 02:24:41;;;;;;;6.37;5.73;;;17.30;99.00;;;;;;20843894;28;20209;-60
2023/06/24 02:34:42;;;;;;;9.13;6.60;;;17.10;99.00;;;;;;20842486;28;20233;-63
2023/06/24 02:44:44;;;;;;;8.17;6.50;;;17.00;99.30;;;;;;20841121;28;20394;-60
2023/06/24 02:54:46;;;;;;;6.93;5.80;;;16.90;99.50;;;;;;20841314;28;20702;-60
2023/06/24 03:04:50;;;;;;;6.80;6.10;;;16.70;99.60;;;;;;20840357;28;20715;-60
2023/06/24 03:14:51;;;;;;;6.13;5.40;;;16.70;99.80;;;;;;20839593;28;20286;-71
2023/06/24 03:24:53;;;;;;;7.53;5.80;;;16.80;99.80;;;;;;20839250;28;20633;-61
2023/06/24 03:34:55;;;;;;;7.87;5.37;;;16.70;99.80;;;;;;20837931;28;20275;-63
2023/06/24 03:44:57;;;;;;;9.93;5.80;;;16.70;99.90;;;;;;20837133;28;20271;-65
2023/06/24 03:54:58;;;;;;;10.47;5.93;;;16.80;99.90;;;;;;20836019;28;20275;-64
2023/06/24 04:05:00;;;;;;;6.63;5.77;;;16.80;99.90;;;;;;20835594;28;20215;-64
2023/06/24 04:15:05;;;;;;;6.67;5.90;;;16.80;99.90;;;;;;20834961;28;20233;-71
2023/06/24 04:25:08;;;;;;;8.07;6.57;;;16.80;99.90;;;;;;20835045;28;20640;-71
2023/06/24 04:35:10;;;;;;;8.40;6.30;;;16.90;99.90;;;;;;20835180;28;20232;-70
2023/06/24 04:45:11;;;;;;;7.90;6.57;;;17.00;99.90;;;;;;20834632;28;20722;-60
2023/06/24 04:55:13;;;;;;;9.33;6.90;;;17.30;99.90;;;;;;20831655;28;20264;-60
2023/06/24 05:05:15;;;;;;;8.30;6.10;;;17.50;99.90;;;;;;20830458;28;20214;-61
2023/06/24 05:15:17;;;;;;;8.00;6.00;;;17.80;99.90;;;;;;20828421;28;20238;-61
2023/06/24 05:25:20;;;;;;;9.77;6.30;;;18.10;99.90;;;;;;20829954;28;20206;-60
2023/06/24 05:35:22;;;;;;;10.13;6.37;;;18.30;99.90;;;;;;20853433;28;20228;-72
2023/06/24 05:45:23;;;;;;;7.53;6.07;;;18.60;99.60;;;;;;20896748;28;20764;-66
2023/06/24 05:55:25;;;;;;;10.53;5.43;;;18.70;99.70;;;;;;20828737;28;20343;-64
2023/06/24 06:05:27;;;;;;;6.83;5.50;;;19.10;99.30;;;;;;20869068;28;20207;-73
2023/06/24 06:15:28;;;;;;;6.63;5.80;;;19.40;98.90;;;;;;20910540;28;20670;-64
2023/06/24 06:25:30;;;;;;;11.40;6.00;;;19.60;98.50;;;;;;20921675;28;20237;-67
2023/06/24 06:35:32;;;;;;;6.90;5.47;;;19.80;98.10;;;;;;20918898;28;20231;-66
2023/06/24 06:45:36;;;;;;;12.60;6.17;;;20.20;97.90;;;;;;20841787;28;20285;-68
2023/06/24 06:55:39;;;;;;;8.00;5.10;;;;;;;;;;20852140;28;20238;-76
2023/06/24 07:05:41;;;;;;;6.30;4.47;;;;;;;;;;20885980;28;20207;-66
2023/06/24 07:15:44;;;;;;;6.63;4.77;;;20.50;97.40;;;;;;20872366;28;20306;-65
2023/06/24 07:25:45;;;;;;;7.40;4.37;;;21.50;94.70;;;;;;20838263;28;20291;-71
2023/06/24 07:35:47;;;;;;;7.63;4.50;;;21.80;93.70;;;;;;20915670;28;20228;-71
2023/06/24 07:45:49;;;;;;;6.63;4.70;;;22.20;90.70;;;;;;20921368;28;20267;-73
2023/06/24 07:55:50;;;;;;;12.37;4.87;;;22.30;90.80;;;;;;20918233;28;20232;-67
2023/06/24 08:05:52;;;;;;;17.17;5.70;;;22.40;89.10;;;;;;20917801;28;20202;-81
2023/06/24 08:15:54;;;;;;;8.10;4.80;;;22.90;87.70;;;;;;20918930;28;20322;-77
2023/06/24 08:25:56;;;;;;;12.80;4.30;;;23.10;86.70;;;;;;20846380;28;20211;-72
2023/06/24 08:36:16;;;;;;;5.27;3.83;;;23.30;84.60;;;;;;20831830;28;20372;-70
2023/06/24 08:46:19;;;;;;;7.40;4.60;;;23.60;82.00;;;;;;20830498;28;20200;-74
2023/06/24 08:56:21;;;;;;;6.83;3.83;;;23.80;79.70;;;;;;20829219;28;20260;-73
2023/06/24 09:06:23;;;;;;;5.47;3.80;;;23.80;75.60;;;;;;20830252;28;20296;-74
2023/06/24 09:16:25;;;;;;;4.00;3.40;;;23.90;73.40;;;;;;20830370;28;20236;-74
2023/06/24 09:26:29;;;;;;;4.67;3.33;;;24.10;71.80;;;;;;20830114;28;20243;-74
2023/06/24 09:36:33;;;;;;;3.43;2.93;;;24.40;70.60;;;;;;20829675;28;20571;-74
2023/06/24 09:46:37;;;;;;;3.57;2.90;;;24.50;65.90;;;;;;20829408;28;20601;-74
2023/06/24 09:56:46;;;;;;;3.30;3.00;;;24.70;63.90;;;;;;20835080;28;20243;-67
2023/06/24 10:06:48;;;;;;;3.37;2.90;;;24.70;61.90;;;;;;20846114;28;20267;-64
2023/06/24 10:16:50;;;;;;;3.73;3.23;;;25.10;60.80;;;;;;20848976;28;20648;-74
2023/06/24 10:26:52;;;;;;;3.40;2.93;;;25.20;59.00;;;;;;20846994;28;20289;-63
2023/06/24 10:39:49;;;;;;;3.43;3.13;;;25.30;58.00;;;;;;21405452;27;20286;-66
2023/06/24 10:49:51;;;;;;;4.43;3.20;;;25.40;58.30;;;;;;21318784;27;20208;-71
2023/06/24 10:59:57;;;;;;;10.67;6.73;;;25.40;57.20;;;;;;21318541;27;20675;-67
2023/06/24 11:10:03;;;;;;;6.40;3.93;;;25.50;57.00;;;;;;21318856;27;20205;-70
2023/06/24 11:20:13;;;;;;;4.73;3.43;;;25.70;56.10;;;;;;21318012;27;20212;-69
2023/06/24 11:30:16;;;;;;;6.67;5.97;;;25.90;55.10;;;;;;21316889;27;20236;-65
2023/06/24 11:40:20;;;;;;;11.67;6.87;;;26.00;54.80;;;;;;21317051;27;20228;-67
2023/06/24 11:50:27;;;;;;;6.03;3.97;;;26.10;54.60;;;;;;21263865;27;20225;-72
2023/06/24 12:00:30;;;;;;;4.07;3.57;;;25.90;55.00;;;;;;21257984;27;20668;-64
2023/06/24 12:10:33;;;;;;;4.40;3.40;;;26.10;55.00;;;;;;21250080;27;20233;-77
2023/06/24 12:20:36;;;;;;;4.37;3.30;;;26.50;54.00;;;;;;21213941;27;20193;-81
2023/06/24 12:30:39;;;;;;;3.53;3.23;;;27.00;52.50;;;;;;21215690;27;20693;-65
2023/06/24 12:40:42;;;;;;;3.47;2.77;;;27.20;50.60;;;;;;21170581;28;20209;-61
2023/06/24 12:50:44;;;;;;;5.07;3.10;;;27.40;49.00;;;;;;21235036;27;20320;-62
2023/06/24 13:00:46;;;;;;;4.63;2.97;;;27.50;48.40;;;;;;21253553;27;20660;-63
2023/06/24 13:10:48;;;;;;;5.10;3.10;;;27.50;48.40;;;;;;21235475;27;20268;-63
2023/06/24 13:20:49;;;;;;;6.47;4.73;;;27.60;48.20;;;;;;21222298;27;20208;-70
2023/06/24 13:30:54;;;;;;;4.60;3.00;;;27.50;48.20;;;;;;21166317;28;20294;-69
2023/06/24 13:40:56;;;;;;;4.83;2.80;;;27.70;48.20;;;;;;21165963;28;20669;-65
2023/06/24 13:50:58;;;;;;;3.30;3.00;;;27.90;48.10;;;;;;21181478;27;20240;-74
2023/06/24 14:01:00;;;;;;;3.13;2.80;;;28.10;47.50;;;;;;21163904;28;20733;-71
2023/06/24 14:11:02;;;;;;;3.23;2.90;;;28.20;47.60;;;;;;21163049;28;20723;-72
2023/06/24 14:21:05;;;;;;;3.23;2.93;;;28.20;47.70;;;;;;21195910;27;20288;-60
2023/06/24 14:31:07;;;;;;;3.83;2.80;;;28.20;47.50;;;;;;21247444;27;20233;-65
2023/06/24 14:41:09;;;;;;;3.47;2.95;;;27.90;47.50;;;;;;21247380;28;20219;-60
2023/06/24 14:51:10;;;;;;;3.70;2.97;;;29.10;46.10;;;;;;21229354;28;20236;-60
2023/06/24 15:01:12;;;;;;;3.17;2.85;;;29.20;45.60;;;;;;21246724;28;20638;-64
2023/06/24 15:11:14;;;;;;;3.75;2.97;;;29.80;44.40;;;;;;21246462;28;20233;-61
2023/06/24 15:21:16;;;;;;;6.65;3.28;;;28.90;45.10;;;;;;21219870;27;20236;-61
2023/06/24 15:31:36;;;;;;;3.20;2.90;;;28.90;45.60;;;;;;21177450;28;20250;-61
2023/06/24 15:41:38;;;;;;;5.20;3.30;;;29.50;45.00;;;;;;21176027;28;20209;-67
2023/06/24 15:51:40;;;;;;;4.32;2.95;;;29.00;45.70;;;;;;21175672;28;20233;-70
2023/06/24 16:01:42;;;;;;;4.53;3.10;;;29.80;44.60;;;;;;21173932;28;20280;-64
2023/06/24 16:11:44;;;;;;;6.35;3.92;;;30.50;44.50;;;;;;21155025;28;20273;-66
2023/06/24 16:21:46;;;;;;;4.45;3.20;;;34.20;40.10;;;;;;21210843;27;20723;-62
2023/06/24 16:31:48;;;;;;;3.40;3.10;;;37.20;36.80;;;;;;21256347;27;20241;-62
2023/06/24 16:41:50;;;;;;;4.05;3.13;;;36.20;36.30;;;;;;21256098;27;20210;-63
2023/06/24 16:51:52;;;;;;;3.20;2.90;;;33.00;39.00;;;;;;21255346;27;20756;-61
2023/06/24 17:01:53;;;;;;;4.45;3.08;;;32.20;39.40;;;;;;21254038;27;20261;-69
2023/06/24 17:11:55;;;;;;;3.90;3.00;;;32.00;39.70;;;;;;21253181;27;20233;-68
2023/06/24 17:21:57;;;;;;;3.30;3.00;;;33.40;38.50;;;;;;21213045;27;20584;-67
2023/06/24 17:31:59;;;;;;;3.22;2.90;;;37.80;34.40;;;;;;21166518;28;20715;-73
2023/06/24 17:42:00;;;;;;;2.95;2.60;;;38.50;33.60;;;;;;21166299;28;20241;-77
2023/06/24 17:52:02;;;;;;;3.03;2.60;;;41.50;30.40;;;;;;21166627;28;20324;-77
2023/06/24 18:02:04;;;;;;;3.15;2.80;;;41.60;29.50;;;;;;21165103;28;20241;-72
2023/06/24 18:12:06;;;;;;;3.80;3.30;;;38.20;31.50;;;;;;21164450;28;20581;-64
2023/06/24 18:22:08;;;;;;;4.78;3.10;;;33.20;36.90;;;;;;21205434;27;20197;-64
2023/06/24 18:32:10;;;;;;;3.95;3.50;;;30.80;39.70;;;;;;21251627;27;20251;-72
2023/06/24 18:42:11;;;;;;;6.43;3.13;;;29.40;41.30;;;;;;21254555;28;20611;-62
2023/06/24 18:52:13;;;;;;;4.83;3.80;;;28.50;43.10;;;;;;21229818;27;20260;-62
2023/06/24 19:02:15;;;;;;;5.47;3.50;;;27.80;44.60;;;;;;21263308;27;20677;-60
2023/06/24 19:12:17;;;;;;;3.87;3.47;;;27.20;45.60;;;;;;21263110;27;20285;-60
2023/06/24 19:22:19;;;;;;;6.83;3.67;;;26.80;47.10;;;;;;21220002;27;20202;-59
2023/06/24 19:32:20;;;;;;;9.67;3.73;;;26.30;49.60;;;;;;21250069;27;20589;-60
2023/06/24 19:42:22;;;;;;;4.27;3.80;;;25.90;51.00;;;;;;21260106;27;20620;-60
2023/06/24 19:52:25;;;;;;;4.50;3.50;;;25.40;52.80;;;;;;21260167;27;20602;-60
2023/06/24 20:02:26;;;;;;;5.50;4.00;;;25.00;54.90;;;;;;21240819;27;20208;-60
2023/06/24 20:12:28;;;;;;;10.83;5.10;;;24.70;56.00;;;;;;21235696;27;20238;-59
2023/06/24 20:22:30;;;;;;;6.40;4.60;;;24.40;57.50;;;;;;21232504;27;20223;-59
2023/06/24 20:32:32;;;;;;;9.20;4.87;;;24.00;58.70;;;;;;21254465;27;20324;-60
2023/06/24 20:42:33;;;;;;;5.80;4.77;;;23.60;60.30;;;;;;21150834;28;20206;-60
2023/06/24 20:52:35;;;;;;;7.43;4.93;;;23.30;61.60;;;;;;21193296;27;20577;-61
2023/06/24 21:02:38;;;;;;;5.87;4.43;;;;;;;;;;21252523;27;20205;-66
2023/06/24 21:12:40;;;;;;;5.93;4.90;;;23.20;63.80;;;;;;21253935;27;20229;-64
2023/06/24 21:22:46;;;;;;;7.67;4.87;;;22.70;66.40;;;;;;21253702;27;20209;-66
2023/06/24 21:32:48;;;;;;;6.67;4.70;;;22.40;68.10;;;;;;21254496;27;20289;-60
2023/06/24 21:42:50;;;;;;;8.50;5.00;;;22.30;69.40;;;;;;21251667;27;20262;-60
2023/06/24 21:52:51;;;;;;;8.17;5.30;;;22.10;70.60;;;;;;21250310;27;20233;-67
2023/06/24 22:02:54;;;;;;;6.60;5.10;;;22.00;72.00;;;;;;21249979;27;20624;-61
2023/06/24 22:12:56;;;;;;;8.90;5.23;;;21.80;73.60;;;;;;21249244;27;20319;-60
2023/06/24 22:22:58;;;;;;;6.40;5.10;;;21.60;75.40;;;;;;21248617;27;20716;-69
2023/06/24 22:33:00;;;;;;;6.53;5.30;;;21.40;77.70;;;;;;21247896;27;20680;-65
2023/06/24 22:43:02;;;;;;;7.67;5.67;;;21.30;78.90;;;;;;21247867;28;20201;-71
2023/06/24 22:53:04;;;;;;;7.03;5.73;;;21.00;80.50;;;;;;21247559;28;20635;-69
2023/06/24 23:03:06;;;;;;;9.93;5.90;;;20.90;82.20;;;;;;21247295;28;20292;-60
2023/06/24 23:13:09;;;;;;;8.20;5.77;;;20.70;83.80;;;;;;21246593;28;20285;-60
2023/06/24 23:23:13;;;;;;;8.10;5.90;;;20.60;85.00;;;;;;21246136;28;20202;-63
2023/06/24 23:33:19;;;;;;;8.00;5.13;;;20.60;86.20;;;;;;21245885;28;20703;-68
2023/06/24 23:43:21;;;;;;;14.70;8.00;;;20.40;87.80;;;;;;21254338;27;20287;-72
2023/06/24 23:53:22;;;;;;;8.00;5.87;;;20.30;89.10;;;;;;21260200;27;20241;-69
